sensor_id;sensor_type;location;lat;lon;timestamp;P1;durP1;ratioP1;P2;durP2;ratioP2
33074;SDS011;19433;51.292;6.868;2023-07-13T00:00:10;1.00;;;0.90;;
33074;SDS011;19433;51.292;6.868;2023-07-13T00:02:35;1.43;;;1.10;;
33074;SDS011;19433;51.292;6.868;2023-07-13T00:05:01;1.73;;;1.20;;
33074;SDS011;19433;51.292;6.868;2023-07-13T00:07:26;2.90;;;1.33;;
33074;SDS011;19433;51.292;6.868;2023-07-13T00:09:52;1.03;;;1.00;;
33074;SDS011;19433;51.292;6.868;2023-07-13T00:14:52;3.80;;;1.40;;
33074;SDS011;19433;51.292;6.868;2023-07-13T00:17:17;1.27;;;1.17;;
33074;SDS011;19433;51.292;6.868;2023-07-13T00:19:43;2.50;;;1.30;;
33074;SDS011;19433;51.292;6.868;2023-07-13T00:22:08;2.60;;;1.30;;
33074;SDS011;19433;51.292;6.868;2023-07-13T00:24:33;3.10;;;1.30;;
33074;SDS011;19433;51.292;6.868;2023-07-13T00:27:00;1.43;;;1.13;;
33074;SDS011;19433;51.292;6.868;2023-07-13T00:29:26;3.23;;;1.20;;
33074;SDS011;19433;51.292;6.868;2023-07-13T00:31:51;4.07;;;1.23;;
33074;SDS011;19433;51.292;6.868;2023-07-13T00:34:16;4.10;;;1.30;;
33074;SDS011;19433;51.292;6.868;2023-07-13T00:36:42;1.70;;;1.47;;
33074;SDS011;19433;51.292;6.868;2023-07-13T00:39:07;1.97;;;1.23;;
33074;SDS011;19433;51.292;6.868;2023-07-13T00:41:33;1.20;;;1.10;;
33074;SDS011;19433;51.292;6.868;2023-07-13T00:43:59;3.90;;;1.47;;
33074;SDS011;19433;51.292;6.868;2023-07-13T00:46:31;1.40;;;1.30;;
33074;SDS011;19433;51.292;6.868;2023-07-13T00:49:02;2.77;;;1.27;;
33074;SDS011;19433;51.292;6.868;2023-07-13T00:51:33;4.07;;;1.37;;
33074;SDS011;19433;51.292;6.868;2023-07-13T00:54:04;4.43;;;1.20;;
33074;SDS011;19433;51.292;6.868;2023-07-13T00:56:31;1.50;;;1.40;;
33074;SDS011;19433;51.292;6.868;2023-07-13T00:58:57;3.57;;;1.50;;
33074;SDS011;19433;51.292;6.868;2023-07-13T01:01:25;1.67;;;1.20;;
33074;SDS011;19433;51.292;6.868;2023-07-13T01:03:50;1.77;;;1.20;;
33074;SDS011;19433;51.292;6.868;2023-07-13T01:06:16;5.63;;;1.13;;
33074;SDS011;19433;51.292;6.868;2023-07-13T01:08:42;2.80;;;1.50;;
33074;SDS011;19433;51.292;6.868;2023-07-13T01:11:08;2.10;;;1.37;;
33074;SDS011;19433;51.292;6.868;2023-07-13T01:13:33;3.80;;;1.30;;
33074;SDS011;19433;51.292;6.868;2023-07-13T01:15:58;2.17;;;0.97;;
33074;SDS011;19433;51.292;6.868;2023-07-13T01:18:28;3.23;;;1.13;;
33074;SDS011;19433;51.292;6.868;2023-07-13T01:20:58;2.90;;;1.67;;
33074;SDS011;19433;51.292;6.868;2023-07-13T01:23:28;4.40;;;1.60;;
33074;SDS011;19433;51.292;6.868;2023-07-13T01:25:55;1.30;;;1.17;;
33074;SDS011;19433;51.292;6.868;2023-07-13T01:28:21;3.00;;;1.40;;
33074;SDS011;19433;51.292;6.868;2023-07-13T01:30:51;1.63;;;1.20;;
33074;SDS011;19433;51.292;6.868;2023-07-13T01:33:18;5.07;;;1.40;;
33074;SDS011;19433;51.292;6.868;2023-07-13T01:35:44;3.30;;;1.17;;
33074;SDS011;19433;51.292;6.868;2023-07-13T01:38:11;3.20;;;1.20;;
33074;SDS011;19433;51.292;6.868;2023-07-13T01:40:39;0.90;;;0.80;;
33074;SDS011;19433;51.292;6.868;2023-07-13T01:43:04;1.57;;;0.93;;
33074;SDS011;19433;51.292;6.868;2023-07-13T01:45:30;2.40;;;1.57;;
33074;SDS011;19433;51.292;6.868;2023-07-13T01:47:55;2.13;;;1.20;;
33074;SDS011;19433;51.292;6.868;2023-07-13T01:50:21;1.63;;;1.10;;
33074;SDS011;19433;51.292;6.868;2023-07-13T01:52:46;3.07;;;1.50;;
33074;SDS011;19433;51.292;6.868;2023-07-13T01:55:11;2.87;;;1.00;;
33074;SDS011;19433;51.292;6.868;2023-07-13T01:57:37;1.87;;;1.30;;
33074;SDS011;19433;51.292;6.868;2023-07-13T02:00:03;2.33;;;1.40;;
33074;SDS011;19433;51.292;6.868;2023-07-13T02:02:29;1.73;;;1.13;;
33074;SDS011;19433;51.292;6.868;2023-07-13T02:04:55;2.67;;;1.67;;
33074;SDS011;19433;51.292;6.868;2023-07-13T02:07:21;2.87;;;1.27;;
33074;SDS011;19433;51.292;6.868;2023-07-13T02:09:46;3.83;;;1.17;;
33074;SDS011;19433;51.292;6.868;2023-07-13T02:12:12;2.20;;;1.10;;
33074;SDS011;19433;51.292;6.868;2023-07-13T02:14:37;4.67;;;1.53;;
33074;SDS011;19433;51.292;6.868;2023-07-13T02:17:03;4.90;;;1.70;;
33074;SDS011;19433;51.292;6.868;2023-07-13T02:19:29;1.20;;;1.10;;
33074;SDS011;19433;51.292;6.868;2023-07-13T02:21:54;5.43;;;1.00;;
33074;SDS011;19433;51.292;6.868;2023-07-13T02:24:19;4.87;;;1.30;;
33074;SDS011;19433;51.292;6.868;2023-07-13T02:26:45;3.47;;;1.23;;
33074;SDS011;19433;51.292;6.868;2023-07-13T02:29:11;1.97;;;1.23;;
33074;SDS011;19433;51.292;6.868;2023-07-13T02:31:37;1.33;;;1.17;;
33074;SDS011;19433;51.292;6.868;2023-07-13T02:34:02;2.30;;;1.33;;
33074;SDS011;19433;51.292;6.868;2023-07-13T02:36:29;1.43;;;0.90;;
33074;SDS011;19433;51.292;6.868;2023-07-13T02:38:55;1.43;;;1.07;;
33074;SDS011;19433;51.292;6.868;2023-07-13T02:41:20;3.23;;;1.20;;
33074;SDS011;19433;51.292;6.868;2023-07-13T02:43:47;2.03;;;0.93;;
33074;SDS011;19433;51.292;6.868;2023-07-13T02:46:13;1.13;;;1.00;;
33074;SDS011;19433;51.292;6.868;2023-07-13T02:48:38;2.50;;;1.03;;
33074;SDS011;19433;51.292;6.868;2023-07-13T02:51:04;2.60;;;1.47;;
33074;SDS011;19433;51.292;6.868;2023-07-13T02:53:30;4.47;;;1.30;;
33074;SDS011;19433;51.292;6.868;2023-07-13T02:55:55;3.60;;;1.80;;
33074;SDS011;19433;51.292;6.868;2023-07-13T02:58:22;3.00;;;1.10;;
33074;SDS011;19433;51.292;6.868;2023-07-13T03:00:47;4.70;;;1.30;;
33074;SDS011;19433;51.292;6.868;2023-07-13T03:03:15;3.90;;;1.33;;
33074;SDS011;19433;51.292;6.868;2023-07-13T03:05:41;1.60;;;1.40;;
33074;SDS011;19433;51.292;6.868;2023-07-13T03:08:09;6.20;;;1.40;;
33074;SDS011;19433;51.292;6.868;2023-07-13T03:10:35;5.90;;;1.63;;
33074;SDS011;19433;51.292;6.868;2023-07-13T03:13:01;1.90;;;1.40;;
33074;SDS011;19433;51.292;6.868;2023-07-13T03:15:26;4.50;;;1.47;;
33074;SDS011;19433;51.292;6.868;2023-07-13T03:17:52;2.07;;;1.87;;
33074;SDS011;19433;51.292;6.868;2023-07-13T03:20:17;2.03;;;1.30;;
33074;SDS011;19433;51.292;6.868;2023-07-13T03:22:43;2.17;;;1.40;;
33074;SDS011;19433;51.292;6.868;2023-07-13T03:25:08;1.83;;;1.20;;
33074;SDS011;19433;51.292;6.868;2023-07-13T03:27:37;3.13;;;1.67;;
33074;SDS011;19433;51.292;6.868;2023-07-13T03:30:04;1.20;;;1.10;;
33074;SDS011;19433;51.292;6.868;2023-07-13T03:32:30;3.27;;;1.40;;
33074;SDS011;19433;51.292;6.868;2023-07-13T03:34:55;3.63;;;1.27;;
33074;SDS011;19433;51.292;6.868;2023-07-13T03:37:21;3.27;;;1.67;;
33074;SDS011;19433;51.292;6.868;2023-07-13T03:39:46;2.00;;;1.27;;
33074;SDS011;19433;51.292;6.868;2023-07-13T03:42:11;2.13;;;1.03;;
33074;SDS011;19433;51.292;6.868;2023-07-13T03:44:39;1.93;;;1.50;;
33074;SDS011;19433;51.292;6.868;2023-07-13T03:47:05;2.30;;;1.10;;
33074;SDS011;19433;51.292;6.868;2023-07-13T03:49:33;1.90;;;1.67;;
33074;SDS011;19433;51.292;6.868;2023-07-13T03:51:58;1.87;;;1.13;;
33074;SDS011;19433;51.292;6.868;2023-07-13T03:54:24;2.00;;;1.10;;
33074;SDS011;19433;51.292;6.868;2023-07-13T03:56:49;0.90;;;0.90;;
33074;SDS011;19433;51.292;6.868;2023-07-13T03:59:14;2.20;;;1.30;;
33074;SDS011;19433;51.292;6.868;2023-07-13T04:01:39;2.73;;;1.13;;
33074;SDS011;19433;51.292;6.868;2023-07-13T04:04:05;3.60;;;1.50;;
33074;SDS011;19433;51.292;6.868;2023-07-13T04:06:31;1.47;;;1.00;;
33074;SDS011;19433;51.292;6.868;2023-07-13T04:08:57;3.70;;;1.23;;
33074;SDS011;19433;51.292;6.868;2023-07-13T04:11:25;2.70;;;1.10;;
33074;SDS011;19433;51.292;6.868;2023-07-13T04:13:53;1.73;;;1.20;;
33074;SDS011;19433;51.292;6.868;2023-07-13T04:16:18;2.07;;;1.30;;
33074;SDS011;19433;51.292;6.868;2023-07-13T04:18:45;4.20;;;1.53;;
33074;SDS011;19433;51.292;6.868;2023-07-13T04:21:11;1.90;;;1.60;;
33074;SDS011;19433;51.292;6.868;2023-07-13T04:23:37;4.17;;;1.80;;
33074;SDS011;19433;51.292;6.868;2023-07-13T04:26:03;1.80;;;1.70;;
33074;SDS011;19433;51.292;6.868;2023-07-13T04:28:28;2.00;;;1.30;;
33074;SDS011;19433;51.292;6.868;2023-07-13T04:30:53;2.53;;;1.70;;
33074;SDS011;19433;51.292;6.868;2023-07-13T04:33:19;1.83;;;1.33;;
33074;SDS011;19433;51.292;6.868;2023-07-13T04:35:50;2.97;;;1.47;;
33074;SDS011;19433;51.292;6.868;2023-07-13T04:38:21;6.43;;;2.00;;
33074;SDS011;19433;51.292;6.868;2023-07-13T04:40:52;3.90;;;1.47;;
33074;SDS011;19433;51.292;6.868;2023-07-13T04:43:17;2.13;;;1.40;;
33074;SDS011;19433;51.292;6.868;2023-07-13T04:45:43;4.83;;;1.40;;
33074;SDS011;19433;51.292;6.868;2023-07-13T04:48:09;4.67;;;1.60;;
33074;SDS011;19433;51.292;6.868;2023-07-13T04:50:36;2.37;;;1.53;;
33074;SDS011;19433;51.292;6.868;2023-07-13T04:53:02;1.47;;;1.37;;
33074;SDS011;19433;51.292;6.868;2023-07-13T04:55:28;3.90;;;1.57;;
33074;SDS011;19433;51.292;6.868;2023-07-13T04:57:55;4.33;;;1.83;;
33074;SDS011;19433;51.292;6.868;2023-07-13T05:00:21;3.13;;;1.30;;
33074;SDS011;19433;51.292;6.868;2023-07-13T05:02:47;3.37;;;1.83;;
33074;SDS011;19433;51.292;6.868;2023-07-13T05:05:12;2.70;;;1.73;;
33074;SDS011;19433;51.292;6.868;2023-07-13T05:07:38;2.30;;;1.43;;
33074;SDS011;19433;51.292;6.868;2023-07-13T05:10:03;1.43;;;1.33;;
33074;SDS011;19433;51.292;6.868;2023-07-13T05:12:29;3.97;;;1.60;;
33074;SDS011;19433;51.292;6.868;2023-07-13T05:14:55;3.30;;;1.30;;
33074;SDS011;19433;51.292;6.868;2023-07-13T05:17:20;1.50;;;1.37;;
33074;SDS011;19433;51.292;6.868;2023-07-13T05:19:46;4.37;;;1.93;;
33074;SDS011;19433;51.292;6.868;2023-07-13T05:22:11;1.90;;;1.40;;
33074;SDS011;19433;51.292;6.868;2023-07-13T05:24:36;2.93;;;1.50;;
33074;SDS011;19433;51.292;6.868;2023-07-13T05:27:01;2.77;;;1.53;;
33074;SDS011;19433;51.292;6.868;2023-07-13T05:29:27;4.53;;;2.00;;
33074;SDS011;19433;51.292;6.868;2023-07-13T05:31:52;6.03;;;1.20;;
33074;SDS011;19433;51.292;6.868;2023-07-13T05:34:18;5.80;;;1.80;;
33074;SDS011;19433;51.292;6.868;2023-07-13T05:36:43;6.77;;;2.10;;
33074;SDS011;19433;51.292;6.868;2023-07-13T05:39:08;3.80;;;1.73;;
33074;SDS011;19433;51.292;6.868;2023-07-13T05:41:34;3.30;;;1.53;;
33074;SDS011;19433;51.292;6.868;2023-07-13T05:44:00;3.60;;;1.40;;
33074;SDS011;19433;51.292;6.868;2023-07-13T05:46:26;3.33;;;1.87;;
33074;SDS011;19433;51.292;6.868;2023-07-13T05:48:51;2.00;;;1.30;;
33074;SDS011;19433;51.292;6.868;2023-07-13T05:51:17;6.00;;;2.60;;
33074;SDS011;19433;51.292;6.868;2023-07-13T05:53:42;2.90;;;1.77;;
33074;SDS011;19433;51.292;6.868;2023-07-13T05:56:07;1.53;;;1.40;;
33074;SDS011;19433;51.292;6.868;2023-07-13T05:58:33;4.83;;;1.70;;
33074;SDS011;19433;51.292;6.868;2023-07-13T06:00:59;4.10;;;2.30;;
33074;SDS011;19433;51.292;6.868;2023-07-13T06:03:26;6.03;;;2.20;;
33074;SDS011;19433;51.292;6.868;2023-07-13T06:05:51;4.60;;;1.80;;
33074;SDS011;19433;51.292;6.868;2023-07-13T06:08:17;6.13;;;1.93;;
33074;SDS011;19433;51.292;6.868;2023-07-13T06:10:42;2.20;;;2.10;;
33074;SDS011;19433;51.292;6.868;2023-07-13T06:13:08;1.80;;;1.70;;
33074;SDS011;19433;51.292;6.868;2023-07-13T06:15:33;2.20;;;1.63;;
33074;SDS011;19433;51.292;6.868;2023-07-13T06:17:58;4.23;;;1.90;;
33074;SDS011;19433;51.292;6.868;2023-07-13T06:20:24;5.40;;;1.70;;
33074;SDS011;19433;51.292;6.868;2023-07-13T06:22:49;7.03;;;2.00;;
33074;SDS011;19433;51.292;6.868;2023-07-13T06:25:15;6.40;;;2.77;;
33074;SDS011;19433;51.292;6.868;2023-07-13T06:27:40;3.40;;;1.67;;
33074;SDS011;19433;51.292;6.868;2023-07-13T06:30:05;2.87;;;1.47;;
33074;SDS011;19433;51.292;6.868;2023-07-13T06:32:31;3.63;;;2.60;;
33074;SDS011;19433;51.292;6.868;2023-07-13T06:34:56;2.60;;;1.90;;
33074;SDS011;19433;51.292;6.868;2023-07-13T06:37:22;4.37;;;2.03;;
33074;SDS011;19433;51.292;6.868;2023-07-13T06:39:47;7.10;;;2.00;;
33074;SDS011;19433;51.292;6.868;2023-07-13T06:42:12;3.57;;;2.50;;
33074;SDS011;19433;51.292;6.868;2023-07-13T06:44:37;3.20;;;2.10;;
33074;SDS011;19433;51.292;6.868;2023-07-13T06:47:03;6.07;;;2.17;;
33074;SDS011;19433;51.292;6.868;2023-07-13T06:49:28;7.63;;;1.80;;
33074;SDS011;19433;51.292;6.868;2023-07-13T06:51:54;2.60;;;2.00;;
33074;SDS011;19433;51.292;6.868;2023-07-13T06:54:19;2.73;;;2.50;;
33074;SDS011;19433;51.292;6.868;2023-07-13T06:56:44;3.57;;;2.10;;
33074;SDS011;19433;51.292;6.868;2023-07-13T06:59:09;4.27;;;2.27;;
33074;SDS011;19433;51.292;6.868;2023-07-13T07:01:35;3.37;;;1.63;;
33074;SDS011;19433;51.292;6.868;2023-07-13T07:04:00;4.20;;;2.57;;
33074;SDS011;19433;51.292;6.868;2023-07-13T07:06:25;5.10;;;2.27;;
33074;SDS011;19433;51.292;6.868;2023-07-13T07:08:51;4.07;;;2.20;;
33074;SDS011;19433;51.292;6.868;2023-07-13T07:11:18;4.27;;;2.33;;
33074;SDS011;19433;51.292;6.868;2023-07-13T07:13:47;1.93;;;1.80;;
33074;SDS011;19433;51.292;6.868;2023-07-13T07:16:12;3.40;;;2.20;;
33074;SDS011;19433;51.292;6.868;2023-07-13T07:18:38;5.10;;;2.83;;
33074;SDS011;19433;51.292;6.868;2023-07-13T07:21:03;3.10;;;2.70;;
33074;SDS011;19433;51.292;6.868;2023-07-13T07:23:29;3.03;;;1.87;;
33074;SDS011;19433;51.292;6.868;2023-07-13T07:25:54;4.57;;;2.07;;
33074;SDS011;19433;51.292;6.868;2023-07-13T07:28:19;5.60;;;2.43;;
33074;SDS011;19433;51.292;6.868;2023-07-13T07:30:46;2.87;;;1.80;;
33074;SDS011;19433;51.292;6.868;2023-07-13T07:33:12;4.27;;;2.13;;
33074;SDS011;19433;51.292;6.868;2023-07-13T07:35:39;5.67;;;2.43;;
33074;SDS011;19433;51.292;6.868;2023-07-13T07:38:04;4.03;;;2.20;;
33074;SDS011;19433;51.292;6.868;2023-07-13T07:40:30;3.27;;;2.27;;
33074;SDS011;19433;51.292;6.868;2023-07-13T07:42:56;3.73;;;2.60;;
33074;SDS011;19433;51.292;6.868;2023-07-13T07:45:21;5.10;;;2.50;;
33074;SDS011;19433;51.292;6.868;2023-07-13T07:47:46;3.33;;;2.23;;
33074;SDS011;19433;51.292;6.868;2023-07-13T07:50:12;4.20;;;2.17;;
33074;SDS011;19433;51.292;6.868;2023-07-13T07:52:37;4.27;;;2.60;;
33074;SDS011;19433;51.292;6.868;2023-07-13T07:55:04;3.37;;;2.03;;
33074;SDS011;19433;51.292;6.868;2023-07-13T07:57:30;3.93;;;2.20;;
33074;SDS011;19433;51.292;6.868;2023-07-13T07:59:55;6.00;;;2.30;;
33074;SDS011;19433;51.292;6.868;2023-07-13T08:02:21;2.30;;;1.50;;
33074;SDS011;19433;51.292;6.868;2023-07-13T08:04:46;2.37;;;1.53;;
33074;SDS011;19433;51.292;6.868;2023-07-13T08:07:11;4.27;;;2.37;;
33074;SDS011;19433;51.292;6.868;2023-07-13T08:09:36;3.33;;;2.20;;
33074;SDS011;19433;51.292;6.868;2023-07-13T08:12:02;2.57;;;2.20;;
33074;SDS011;19433;51.292;6.868;2023-07-13T08:14:27;5.17;;;2.37;;
33074;SDS011;19433;51.292;6.868;2023-07-13T08:16:52;2.60;;;2.10;;
33074;SDS011;19433;51.292;6.868;2023-07-13T08:19:18;5.53;;;1.97;;
33074;SDS011;19433;51.292;6.868;2023-07-13T08:21:44;3.37;;;1.90;;
33074;SDS011;19433;51.292;6.868;2023-07-13T08:24:09;3.20;;;1.70;;
33074;SDS011;19433;51.292;6.868;2023-07-13T08:26:34;1.70;;;1.60;;
33074;SDS011;19433;51.292;6.868;2023-07-13T08:29:00;4.40;;;2.10;;
33074;SDS011;19433;51.292;6.868;2023-07-13T08:31:25;2.20;;;1.90;;
33074;SDS011;19433;51.292;6.868;2023-07-13T08:33:51;5.00;;;2.07;;
33074;SDS011;19433;51.292;6.868;2023-07-13T08:36:16;6.07;;;2.00;;
33074;SDS011;19433;51.292;6.868;2023-07-13T08:38:41;2.83;;;2.23;;
33074;SDS011;19433;51.292;6.868;2023-07-13T08:41:14;3.27;;;1.70;;
33074;SDS011;19433;51.292;6.868;2023-07-13T08:43:41;3.83;;;2.30;;
33074;SDS011;19433;51.292;6.868;2023-07-13T08:46:18;5.83;;;2.17;;
33074;SDS011;19433;51.292;6.868;2023-07-13T08:48:46;7.40;;;2.20;;
33074;SDS011;19433;51.292;6.868;2023-07-13T08:51:26;3.03;;;1.77;;
33074;SDS011;19433;51.292;6.868;2023-07-13T08:53:59;7.03;;;2.53;;
33074;SDS011;19433;51.292;6.868;2023-07-13T08:56:27;2.80;;;1.90;;
33074;SDS011;19433;51.292;6.868;2023-07-13T08:58:55;2.87;;;1.43;;
33074;SDS011;19433;51.292;6.868;2023-07-13T09:04:25;2.57;;;2.00;;
33074;SDS011;19433;51.292;6.868;2023-07-13T09:06:58;2.80;;;1.80;;
33074;SDS011;19433;51.292;6.868;2023-07-13T09:12:07;5.17;;;2.37;;
33074;SDS011;19433;51.292;6.868;2023-07-13T09:14:41;5.33;;;2.23;;
33074;SDS011;19433;51.292;6.868;2023-07-13T09:17:12;3.73;;;2.07;;
33074;SDS011;19433;51.292;6.868;2023-07-13T09:19:42;3.00;;;1.60;;
33074;SDS011;19433;51.292;6.868;2023-07-13T09:22:12;5.90;;;2.97;;
33074;SDS011;19433;51.292;6.868;2023-07-13T09:24:50;6.50;;;2.60;;
33074;SDS011;19433;51.292;6.868;2023-07-13T09:27:39;3.77;;;2.50;;
33074;SDS011;19433;51.292;6.868;2023-07-13T09:32:39;3.07;;;2.07;;
33074;SDS011;19433;51.292;6.868;2023-07-13T09:35:10;2.10;;;1.80;;
33074;SDS011;19433;51.292;6.868;2023-07-13T09:37:39;3.97;;;2.00;;
33074;SDS011;19433;51.292;6.868;2023-07-13T09:40:09;7.07;;;2.00;;
33074;SDS011;19433;51.292;6.868;2023-07-13T09:42:42;3.30;;;2.40;;
33074;SDS011;19433;51.292;6.868;2023-07-13T09:45:07;6.60;;;2.23;;
33074;SDS011;19433;51.292;6.868;2023-07-13T09:47:38;2.63;;;1.70;;
33074;SDS011;19433;51.292;6.868;2023-07-13T09:50:09;3.67;;;1.97;;
33074;SDS011;19433;51.292;6.868;2023-07-13T09:52:45;4.10;;;2.00;;
33074;SDS011;19433;51.292;6.868;2023-07-13T09:55:25;2.23;;;1.60;;
33074;SDS011;19433;51.292;6.868;2023-07-13T09:57:53;4.07;;;1.70;;
33074;SDS011;19433;51.292;6.868;2023-07-13T10:00:23;2.37;;;1.77;;
33074;SDS011;19433;51.292;6.868;2023-07-13T10:05:44;3.37;;;1.70;;
33074;SDS011;19433;51.292;6.868;2023-07-13T10:08:17;3.00;;;1.50;;
33074;SDS011;19433;51.292;6.868;2023-07-13T10:10:52;3.20;;;2.13;;
33074;SDS011;19433;51.292;6.868;2023-07-13T10:13:40;7.43;;;2.10;;
33074;SDS011;19433;51.292;6.868;2023-07-13T10:16:09;2.37;;;1.40;;
33074;SDS011;19433;51.292;6.868;2023-07-13T10:18:39;2.83;;;1.90;;
33074;SDS011;19433;51.292;6.868;2023-07-13T10:21:19;3.47;;;1.90;;
33074;SDS011;19433;51.292;6.868;2023-07-13T10:23:48;2.33;;;1.60;;
33074;SDS011;19433;51.292;6.868;2023-07-13T10:26:21;3.93;;;1.57;;
33074;SDS011;19433;51.292;6.868;2023-07-13T10:28:51;3.53;;;2.23;;
33074;SDS011;19433;51.292;6.868;2023-07-13T10:31:21;3.33;;;2.00;;
33074;SDS011;19433;51.292;6.868;2023-07-13T10:33:47;2.80;;;1.57;;
33074;SDS011;19433;51.292;6.868;2023-07-13T10:36:15;2.53;;;1.40;;
33074;SDS011;19433;51.292;6.868;2023-07-13T10:38:45;2.80;;;1.30;;
33074;SDS011;19433;51.292;6.868;2023-07-13T10:41:15;5.70;;;1.50;;
33074;SDS011;19433;51.292;6.868;2023-07-13T10:43:45;3.00;;;1.70;;
33074;SDS011;19433;51.292;6.868;2023-07-13T10:46:16;3.40;;;1.90;;
33074;SDS011;19433;51.292;6.868;2023-07-13T10:48:45;1.50;;;1.40;;
33074;SDS011;19433;51.292;6.868;2023-07-13T10:51:14;2.10;;;1.10;;
33074;SDS011;19433;51.292;6.868;2023-07-13T10:53:42;3.37;;;1.87;;
33074;SDS011;19433;51.292;6.868;2023-07-13T11:01:40;1.73;;;1.40;;
33074;SDS011;19433;51.292;6.868;2023-07-13T11:04:41;3.00;;;1.50;;
33074;SDS011;19433;51.292;6.868;2023-07-13T11:07:18;4.83;;;1.47;;
33074;SDS011;19433;51.292;6.868;2023-07-13T11:09:53;3.43;;;2.03;;
33074;SDS011;19433;51.292;6.868;2023-07-13T11:25:42;5.07;;;1.90;;
33074;SDS011;19433;51.292;6.868;2023-07-13T11:30:38;2.43;;;1.23;;
33074;SDS011;19433;51.292;6.868;2023-07-13T11:33:45;1.70;;;1.60;;
33074;SDS011;19433;51.292;6.868;2023-07-13T11:36:21;1.23;;;1.10;;
33074;SDS011;19433;51.292;6.868;2023-07-13T11:38:58;1.27;;;1.00;;
33074;SDS011;19433;51.292;6.868;2023-07-13T11:41:30;3.23;;;1.37;;
33074;SDS011;19433;51.292;6.868;2023-07-13T11:44:05;3.73;;;1.73;;
33074;SDS011;19433;51.292;6.868;2023-07-13T11:46:58;1.40;;;1.30;;
33074;SDS011;19433;51.292;6.868;2023-07-13T11:49:29;1.43;;;1.33;;
33074;SDS011;19433;51.292;6.868;2023-07-13T11:51:55;2.20;;;1.30;;
33074;SDS011;19433;51.292;6.868;2023-07-13T11:56:59;2.07;;;1.63;;
33074;SDS011;19433;51.292;6.868;2023-07-13T11:59:31;3.10;;;1.83;;
33074;SDS011;19433;51.292;6.868;2023-07-13T12:01:58;1.80;;;1.00;;
33074;SDS011;19433;51.292;6.868;2023-07-13T12:04:25;4.37;;;1.50;;
33074;SDS011;19433;51.292;6.868;2023-07-13T12:06:54;3.13;;;1.80;;
33074;SDS011;19433;51.292;6.868;2023-07-13T12:09:21;2.57;;;1.40;;
33074;SDS011;19433;51.292;6.868;2023-07-13T12:11:50;1.60;;;1.20;;
33074;SDS011;19433;51.292;6.868;2023-07-13T12:14:16;2.33;;;1.70;;
33074;SDS011;19433;51.292;6.868;2023-07-13T12:16:43;2.97;;;1.37;;
33074;SDS011;19433;51.292;6.868;2023-07-13T12:19:16;1.53;;;1.33;;
33074;SDS011;19433;51.292;6.868;2023-07-13T12:21:44;0.93;;;0.87;;
33074;SDS011;19433;51.292;6.868;2023-07-13T12:24:17;4.30;;;1.20;;
33074;SDS011;19433;51.292;6.868;2023-07-13T12:26:44;2.43;;;1.13;;
33074;SDS011;19433;51.292;6.868;2023-07-13T12:29:15;3.27;;;1.43;;
33074;SDS011;19433;51.292;6.868;2023-07-13T12:31:43;2.23;;;1.53;;
33074;SDS011;19433;51.292;6.868;2023-07-13T12:34:12;2.60;;;1.13;;
33074;SDS011;19433;51.292;6.868;2023-07-13T12:36:46;1.00;;;0.90;;
33074;SDS011;19433;51.292;6.868;2023-07-13T12:39:20;1.67;;;1.23;;
33074;SDS011;19433;51.292;6.868;2023-07-13T12:41:49;4.80;;;1.73;;
33074;SDS011;19433;51.292;6.868;2023-07-13T12:44:17;3.13;;;1.70;;
33074;SDS011;19433;51.292;6.868;2023-07-13T12:46:55;3.10;;;1.37;;
33074;SDS011;19433;51.292;6.868;2023-07-13T12:49:31;1.90;;;1.40;;
33074;SDS011;19433;51.292;6.868;2023-07-13T12:52:00;3.40;;;1.30;;
33074;SDS011;19433;51.292;6.868;2023-07-13T12:54:27;2.00;;;1.47;;
33074;SDS011;19433;51.292;6.868;2023-07-13T12:56:54;2.80;;;1.13;;
33074;SDS011;19433;51.292;6.868;2023-07-13T12:59:23;1.50;;;1.10;;
33074;SDS011;19433;51.292;6.868;2023-07-13T13:01:50;2.60;;;1.50;;
33074;SDS011;19433;51.292;6.868;2023-07-13T13:04:16;2.70;;;1.37;;
33074;SDS011;19433;51.292;6.868;2023-07-13T13:06:46;1.07;;;1.00;;
33074;SDS011;19433;51.292;6.868;2023-07-13T13:09:13;2.40;;;1.17;;
33074;SDS011;19433;51.292;6.868;2023-07-13T13:11:39;1.27;;;1.10;;
33074;SDS011;19433;51.292;6.868;2023-07-13T13:14:05;2.23;;;1.20;;
33074;SDS011;19433;51.292;6.868;2023-07-13T13:16:35;1.13;;;1.00;;
33074;SDS011;19433;51.292;6.868;2023-07-13T13:19:14;2.00;;;1.37;;
33074;SDS011;19433;51.292;6.868;2023-07-13T13:21:51;2.50;;;1.30;;
33074;SDS011;19433;51.292;6.868;2023-07-13T13:24:21;1.93;;;1.37;;
33074;SDS011;19433;51.292;6.868;2023-07-13T13:26:50;3.60;;;1.50;;
33074;SDS011;19433;51.292;6.868;2023-07-13T13:29:18;2.10;;;1.77;;
33074;SDS011;19433;51.292;6.868;2023-07-13T13:31:45;2.20;;;1.43;;
33074;SDS011;19433;51.292;6.868;2023-07-13T13:34:13;1.57;;;1.03;;
33074;SDS011;19433;51.292;6.868;2023-07-13T13:36:40;1.80;;;1.53;;
33074;SDS011;19433;51.292;6.868;2023-07-13T13:39:18;3.37;;;1.17;;
33074;SDS011;19433;51.292;6.868;2023-07-13T13:41:46;1.80;;;1.10;;
33074;SDS011;19433;51.292;6.868;2023-07-13T13:44:13;1.93;;;1.20;;
33074;SDS011;19433;51.292;6.868;2023-07-13T13:46:40;4.20;;;1.50;;
33074;SDS011;19433;51.292;6.868;2023-07-13T13:49:10;2.07;;;1.70;;
33074;SDS011;19433;51.292;6.868;2023-07-13T13:51:39;1.47;;;1.10;;
33074;SDS011;19433;51.292;6.868;2023-07-13T13:54:05;2.60;;;1.47;;
33074;SDS011;19433;51.292;6.868;2023-07-13T13:56:35;2.80;;;1.50;;
33074;SDS011;19433;51.292;6.868;2023-07-13T13:59:00;1.90;;;1.27;;
33074;SDS011;19433;51.292;6.868;2023-07-13T14:01:25;1.00;;;0.90;;
33074;SDS011;19433;51.292;6.868;2023-07-13T14:03:50;1.20;;;1.10;;
33074;SDS011;19433;51.292;6.868;2023-07-13T14:06:18;2.83;;;1.60;;
33074;SDS011;19433;51.292;6.868;2023-07-13T14:08:44;1.97;;;1.80;;
33074;SDS011;19433;51.292;6.868;2023-07-13T14:11:13;1.23;;;1.13;;
33074;SDS011;19433;51.292;6.868;2023-07-13T14:13:44;2.70;;;1.43;;
33074;SDS011;19433;51.292;6.868;2023-07-13T14:16:17;1.40;;;1.10;;
33074;SDS011;19433;51.292;6.868;2023-07-13T14:18:46;0.80;;;0.80;;
33074;SDS011;19433;51.292;6.868;2023-07-13T14:21:15;1.30;;;1.13;;
33074;SDS011;19433;51.292;6.868;2023-07-13T14:23:43;2.60;;;1.10;;
33074;SDS011;19433;51.292;6.868;2023-07-13T14:26:11;1.13;;;1.03;;
33074;SDS011;19433;51.292;6.868;2023-07-13T14:28:43;2.30;;;1.50;;
33074;SDS011;19433;51.292;6.868;2023-07-13T14:31:11;1.53;;;1.23;;
33074;SDS011;19433;51.292;6.868;2023-07-13T14:33:38;1.83;;;1.17;;
33074;SDS011;19433;51.292;6.868;2023-07-13T14:36:05;1.20;;;1.10;;
33074;SDS011;19433;51.292;6.868;2023-07-13T14:38:46;3.40;;;1.40;;
33074;SDS011;19433;51.292;6.868;2023-07-13T14:41:11;2.80;;;1.40;;
33074;SDS011;19433;51.292;6.868;2023-07-13T14:43:37;2.60;;;1.10;;
33074;SDS011;19433;51.292;6.868;2023-07-13T14:46:02;3.07;;;1.27;;
33074;SDS011;19433;51.292;6.868;2023-07-13T14:48:29;3.10;;;1.43;;
33074;SDS011;19433;51.292;6.868;2023-07-13T14:50:55;1.50;;;1.30;;
33074;SDS011;19433;51.292;6.868;2023-07-13T14:53:27;2.47;;;1.27;;
33074;SDS011;19433;51.292;6.868;2023-07-13T14:55:55;2.10;;;1.33;;
33074;SDS011;19433;51.292;6.868;2023-07-13T14:58:20;1.40;;;1.30;;
33074;SDS011;19433;51.292;6.868;2023-07-13T15:00:46;2.30;;;1.50;;
33074;SDS011;19433;51.292;6.868;2023-07-13T15:03:23;1.20;;;1.10;;
33074;SDS011;19433;51.292;6.868;2023-07-13T15:05:50;2.00;;;1.60;;
33074;SDS011;19433;51.292;6.868;2023-07-13T15:08:16;2.30;;;1.43;;
33074;SDS011;19433;51.292;6.868;2023-07-13T15:10:41;2.90;;;1.60;;
33074;SDS011;19433;51.292;6.868;2023-07-13T15:13:17;1.73;;;1.23;;
33074;SDS011;19433;51.292;6.868;2023-07-13T15:15:46;1.90;;;1.23;;
33074;SDS011;19433;51.292;6.868;2023-07-13T15:18:14;1.90;;;1.37;;
33074;SDS011;19433;51.292;6.868;2023-07-13T15:20:42;3.90;;;1.80;;
33074;SDS011;19433;51.292;6.868;2023-07-13T15:23:13;2.90;;;1.33;;
33074;SDS011;19433;51.292;6.868;2023-07-13T15:25:40;1.50;;;0.93;;
33074;SDS011;19433;51.292;6.868;2023-07-13T15:28:06;1.43;;;1.20;;